Africa, Pennsylvania
Current Conditions -  °F | °C
As of 2:53 AM on Friday 28 Nov 2014 (Local Time) from KHGR Reporting Station
Clear Clear  
Wind Chill: 22°   Ceiling: Unl
Heat Index: 31°   Visibility: 10mi
Dew Point: 22°   Wind: 10mph
Humidity: 69%   Direction: 300°WNW
Pressure: 30.18"   Gusts: NA
Location:  39.8035°N, 77.9346°W
Report Text: KHGR 280753Z AUTO 30009KT 10SM CLR M01/M06 A3018 RMK AO2 SLP236 T10061056 $
Loading
Personal Weather Stations






























Interactive Weather Map New forecast layout! Learn more

10-Day Weather Forecast

Advertisements
Track Severe Weather on mobile